sensor_id;sensor_type;location;lat;lon;timestamp;P1;durP1;ratioP1;P2;durP2;ratioP2
61617;SDS011;47518;51.776;9.370;2023-06-22T00:02:18;14.18;;;12.70;;
61617;SDS011;47518;51.776;9.370;2023-06-22T00:04:44;13.70;;;12.43;;
61617;SDS011;47518;51.776;9.370;2023-06-22T00:07:09;14.35;;;12.95;;
61617;SDS011;47518;51.776;9.370;2023-06-22T00:09:35;13.98;;;12.77;;
61617;SDS011;47518;51.776;9.370;2023-06-22T00:12:00;14.43;;;12.93;;
61617;SDS011;47518;51.776;9.370;2023-06-22T00:14:26;14.27;;;12.85;;
61617;SDS011;47518;51.776;9.370;2023-06-22T00:16:52;13.85;;;12.45;;
61617;SDS011;47518;51.776;9.370;2023-06-22T00:19:19;14.35;;;12.85;;
61617;SDS011;47518;51.776;9.370;2023-06-22T00:21:46;13.63;;;12.32;;
61617;SDS011;47518;51.776;9.370;2023-06-22T00:24:11;14.30;;;12.77;;
61617;SDS011;47518;51.776;9.370;2023-06-22T00:26:37;14.07;;;12.77;;
61617;SDS011;47518;51.776;9.370;2023-06-22T00:29:02;14.20;;;12.85;;
61617;SDS011;47518;51.776;9.370;2023-06-22T00:31:27;14.38;;;12.95;;
61617;SDS011;47518;51.776;9.370;2023-06-22T00:33:53;14.73;;;13.35;;
61617;SDS011;47518;51.776;9.370;2023-06-22T00:36:18;14.80;;;13.30;;
61617;SDS011;47518;51.776;9.370;2023-06-22T00:38:44;13.95;;;12.50;;
61617;SDS011;47518;51.776;9.370;2023-06-22T00:41:09;14.65;;;13.07;;
61617;SDS011;47518;51.776;9.370;2023-06-22T00:43:34;15.15;;;13.13;;
61617;SDS011;47518;51.776;9.370;2023-06-22T00:46:00;13.68;;;12.32;;
61617;SDS011;47518;51.776;9.370;2023-06-22T00:48:25;14.00;;;12.48;;
61617;SDS011;47518;51.776;9.370;2023-06-22T00:50:51;14.20;;;12.75;;
61617;SDS011;47518;51.776;9.370;2023-06-22T00:53:18;14.20;;;12.07;;
61617;SDS011;47518;51.776;9.370;2023-06-22T00:55:44;15.23;;;12.77;;
61617;SDS011;47518;51.776;9.370;2023-06-22T00:58:12;14.10;;;12.68;;
61617;SDS011;47518;51.776;9.370;2023-06-22T01:00:39;13.98;;;12.48;;
61617;SDS011;47518;51.776;9.370;2023-06-22T01:03:06;13.15;;;11.85;;
61617;SDS011;47518;51.776;9.370;2023-06-22T01:05:34;14.30;;;12.93;;
61617;SDS011;47518;51.776;9.370;2023-06-22T01:08:04;14.23;;;12.80;;
61617;SDS011;47518;51.776;9.370;2023-06-22T01:10:36;13.40;;;12.20;;
61617;SDS011;47518;51.776;9.370;2023-06-22T01:13:22;18.00;;;12.85;;
61617;SDS011;47518;51.776;9.370;2023-06-22T01:16:02;14.40;;;12.90;;
61617;SDS011;47518;51.776;9.370;2023-06-22T01:18:30;14.63;;;12.05;;
61617;SDS011;47518;51.776;9.370;2023-06-22T01:20:56;13.48;;;12.15;;
61617;SDS011;47518;51.776;9.370;2023-06-22T01:23:42;13.88;;;12.05;;
61617;SDS011;47518;51.776;9.370;2023-06-22T01:26:35;14.63;;;11.88;;
61617;SDS011;47518;51.776;9.370;2023-06-22T01:29:08;13.13;;;11.77;;
61617;SDS011;47518;51.776;9.370;2023-06-22T01:31:37;16.48;;;12.48;;
61617;SDS011;47518;51.776;9.370;2023-06-22T01:34:08;13.68;;;12.20;;
61617;SDS011;47518;51.776;9.370;2023-06-22T01:36:37;17.35;;;12.55;;
61617;SDS011;47518;51.776;9.370;2023-06-22T01:39:05;14.88;;;11.82;;
61617;SDS011;47518;51.776;9.370;2023-06-22T01:41:34;14.63;;;11.77;;
61617;SDS011;47518;51.776;9.370;2023-06-22T01:44:01;16.23;;;12.80;;
61617;SDS011;47518;51.776;9.370;2023-06-22T01:46:30;13.10;;;11.80;;
61617;SDS011;47518;51.776;9.370;2023-06-22T01:48:55;14.00;;;12.65;;
61617;SDS011;47518;51.776;9.370;2023-06-22T01:51:21;13.55;;;12.10;;
61617;SDS011;47518;51.776;9.370;2023-06-22T01:53:46;17.70;;;12.75;;
61617;SDS011;47518;51.776;9.370;2023-06-22T01:56:13;13.45;;;12.10;;
61617;SDS011;47518;51.776;9.370;2023-06-22T01:58:44;14.98;;;11.88;;
61617;SDS011;47518;51.776;9.370;2023-06-22T02:01:15;14.52;;;12.50;;
61617;SDS011;47518;51.776;9.370;2023-06-22T02:03:52;15.02;;;12.38;;
61617;SDS011;47518;51.776;9.370;2023-06-22T02:06:29;16.35;;;12.18;;
61617;SDS011;47518;51.776;9.370;2023-06-22T02:09:01;17.42;;;12.60;;
61617;SDS011;47518;51.776;9.370;2023-06-22T02:11:28;15.18;;;12.63;;
61617;SDS011;47518;51.776;9.370;2023-06-22T02:13:56;15.27;;;12.02;;
61617;SDS011;47518;51.776;9.370;2023-06-22T02:16:26;16.05;;;12.20;;
61617;SDS011;47518;51.776;9.370;2023-06-22T02:18:55;19.05;;;12.68;;
61617;SDS011;47518;51.776;9.370;2023-06-22T02:21:21;15.20;;;12.13;;
61617;SDS011;47518;51.776;9.370;2023-06-22T02:23:47;14.48;;;12.00;;
61617;SDS011;47518;51.776;9.370;2023-06-22T02:26:12;16.98;;;12.40;;
61617;SDS011;47518;51.776;9.370;2023-06-22T02:28:38;19.80;;;11.85;;
61617;SDS011;47518;51.776;9.370;2023-06-22T02:31:04;14.05;;;11.73;;
61617;SDS011;47518;51.776;9.370;2023-06-22T02:33:29;14.63;;;12.43;;
61617;SDS011;47518;51.776;9.370;2023-06-22T02:35:55;14.10;;;12.70;;
61617;SDS011;47518;51.776;9.370;2023-06-22T02:38:20;15.68;;;12.27;;
61617;SDS011;47518;51.776;9.370;2023-06-22T02:40:46;13.55;;;11.55;;
61617;SDS011;47518;51.776;9.370;2023-06-22T02:43:12;20.70;;;11.93;;
61617;SDS011;47518;51.776;9.370;2023-06-22T02:45:38;15.90;;;12.48;;
61617;SDS011;47518;51.776;9.370;2023-06-22T02:48:03;19.13;;;12.63;;
61617;SDS011;47518;51.776;9.370;2023-06-22T02:50:31;15.90;;;11.85;;
61617;SDS011;47518;51.776;9.370;2023-06-22T02:52:56;15.27;;;12.38;;
61617;SDS011;47518;51.776;9.370;2023-06-22T02:55:23;15.57;;;12.40;;
61617;SDS011;47518;51.776;9.370;2023-06-22T02:57:48;15.00;;;12.18;;
61617;SDS011;47518;51.776;9.370;2023-06-22T03:00:17;15.15;;;13.07;;
61617;SDS011;47518;51.776;9.370;2023-06-22T03:02:44;15.02;;;12.27;;
61617;SDS011;47518;51.776;9.370;2023-06-22T03:05:12;14.15;;;11.98;;
61617;SDS011;47518;51.776;9.370;2023-06-22T03:07:40;14.15;;;12.65;;
61617;SDS011;47518;51.776;9.370;2023-06-22T03:10:06;17.13;;;12.68;;
61617;SDS011;47518;51.776;9.370;2023-06-22T03:12:34;13.73;;;12.27;;
61617;SDS011;47518;51.776;9.370;2023-06-22T03:14:59;14.63;;;12.68;;
61617;SDS011;47518;51.776;9.370;2023-06-22T03:17:24;15.45;;;13.55;;
61617;SDS011;47518;51.776;9.370;2023-06-22T03:19:50;18.85;;;12.82;;
61617;SDS011;47518;51.776;9.370;2023-06-22T03:22:15;17.98;;;13.88;;
61617;SDS011;47518;51.776;9.370;2023-06-22T03:24:40;16.10;;;14.10;;
61617;SDS011;47518;51.776;9.370;2023-06-22T03:27:06;16.13;;;13.27;;
61617;SDS011;47518;51.776;9.370;2023-06-22T03:29:31;14.68;;;13.20;;
61617;SDS011;47518;51.776;9.370;2023-06-22T03:31:57;14.25;;;12.80;;
61617;SDS011;47518;51.776;9.370;2023-06-22T03:34:22;14.63;;;12.80;;
61617;SDS011;47518;51.776;9.370;2023-06-22T03:36:47;14.93;;;13.00;;
61617;SDS011;47518;51.776;9.370;2023-06-22T03:39:13;14.38;;;12.88;;
61617;SDS011;47518;51.776;9.370;2023-06-22T03:41:38;13.88;;;12.35;;
61617;SDS011;47518;51.776;9.370;2023-06-22T03:44:04;15.02;;;13.55;;
61617;SDS011;47518;51.776;9.370;2023-06-22T03:46:29;15.10;;;13.52;;
61617;SDS011;47518;51.776;9.370;2023-06-22T03:48:54;15.48;;;13.40;;
61617;SDS011;47518;51.776;9.370;2023-06-22T03:51:20;18.92;;;13.18;;
61617;SDS011;47518;51.776;9.370;2023-06-22T03:53:45;18.10;;;12.63;;
61617;SDS011;47518;51.776;9.370;2023-06-22T03:56:11;18.10;;;13.13;;
61617;SDS011;47518;51.776;9.370;2023-06-22T03:58:37;18.83;;;13.02;;
61617;SDS011;47518;51.776;9.370;2023-06-22T04:01:07;13.48;;;12.02;;
61617;SDS011;47518;51.776;9.370;2023-06-22T04:03:36;19.90;;;13.13;;
61617;SDS011;47518;51.776;9.370;2023-06-22T04:06:01;17.00;;;12.80;;
61617;SDS011;47518;51.776;9.370;2023-06-22T04:08:27;19.13;;;13.25;;
61617;SDS011;47518;51.776;9.370;2023-06-22T04:10:52;14.60;;;12.95;;
61617;SDS011;47518;51.776;9.370;2023-06-22T04:13:17;18.23;;;13.50;;
61617;SDS011;47518;51.776;9.370;2023-06-22T04:15:42;18.33;;;12.43;;
61617;SDS011;47518;51.776;9.370;2023-06-22T04:18:08;14.63;;;12.95;;
61617;SDS011;47518;51.776;9.370;2023-06-22T04:20:33;13.95;;;12.65;;
61617;SDS011;47518;51.776;9.370;2023-06-22T04:22:58;15.60;;;13.23;;
61617;SDS011;47518;51.776;9.370;2023-06-22T04:25:24;18.75;;;12.88;;
61617;SDS011;47518;51.776;9.370;2023-06-22T04:27:49;15.30;;;12.40;;
61617;SDS011;47518;51.776;9.370;2023-06-22T04:30:14;15.60;;;13.32;;
61617;SDS011;47518;51.776;9.370;2023-06-22T04:32:41;14.18;;;12.50;;
61617;SDS011;47518;51.776;9.370;2023-06-22T04:35:06;14.57;;;13.10;;
61617;SDS011;47518;51.776;9.370;2023-06-22T04:37:33;15.55;;;13.35;;
61617;SDS011;47518;51.776;9.370;2023-06-22T04:39:58;15.20;;;13.32;;
61617;SDS011;47518;51.776;9.370;2023-06-22T04:42:27;21.02;;;13.73;;
61617;SDS011;47518;51.776;9.370;2023-06-22T04:44:52;14.95;;;12.75;;
61617;SDS011;47518;51.776;9.370;2023-06-22T04:47:18;17.27;;;14.07;;
61617;SDS011;47518;51.776;9.370;2023-06-22T04:49:43;14.45;;;12.85;;
61617;SDS011;47518;51.776;9.370;2023-06-22T04:52:09;15.98;;;12.90;;
61617;SDS011;47518;51.776;9.370;2023-06-22T04:54:36;16.27;;;13.20;;
61617;SDS011;47518;51.776;9.370;2023-06-22T04:57:05;14.52;;;13.02;;
61617;SDS011;47518;51.776;9.370;2023-06-22T04:59:35;18.52;;;12.80;;
61617;SDS011;47518;51.776;9.370;2023-06-22T05:02:01;15.32;;;12.93;;
61617;SDS011;47518;51.776;9.370;2023-06-22T05:04:28;15.20;;;13.80;;
61617;SDS011;47518;51.776;9.370;2023-06-22T05:06:58;15.90;;;13.10;;
61617;SDS011;47518;51.776;9.370;2023-06-22T05:09:25;15.48;;;12.80;;
61617;SDS011;47518;51.776;9.370;2023-06-22T05:11:51;13.95;;;12.50;;
61617;SDS011;47518;51.776;9.370;2023-06-22T05:14:16;15.05;;;13.30;;
61617;SDS011;47518;51.776;9.370;2023-06-22T05:16:42;15.38;;;13.75;;
61617;SDS011;47518;51.776;9.370;2023-06-22T05:19:08;15.15;;;13.57;;
61617;SDS011;47518;51.776;9.370;2023-06-22T05:21:34;17.35;;;13.88;;
61617;SDS011;47518;51.776;9.370;2023-06-22T05:23:59;20.17;;;13.63;;
61617;SDS011;47518;51.776;9.370;2023-06-22T05:26:27;16.63;;;13.70;;
61617;SDS011;47518;51.776;9.370;2023-06-22T05:28:58;17.77;;;12.93;;
61617;SDS011;47518;51.776;9.370;2023-06-22T05:31:23;13.77;;;12.23;;
61617;SDS011;47518;51.776;9.370;2023-06-22T05:33:51;14.32;;;12.32;;
61617;SDS011;47518;51.776;9.370;2023-06-22T05:36:18;14.60;;;13.10;;
61617;SDS011;47518;51.776;9.370;2023-06-22T05:38:45;16.35;;;13.15;;
61617;SDS011;47518;51.776;9.370;2023-06-22T05:41:10;18.23;;;14.48;;
61617;SDS011;47518;51.776;9.370;2023-06-22T05:43:35;16.95;;;15.15;;
61617;SDS011;47518;51.776;9.370;2023-06-22T05:46:01;15.38;;;13.98;;
61617;SDS011;47518;51.776;9.370;2023-06-22T05:48:27;15.38;;;12.50;;
61617;SDS011;47518;51.776;9.370;2023-06-22T05:50:53;14.95;;;13.27;;
61617;SDS011;47518;51.776;9.370;2023-06-22T05:53:18;15.02;;;13.07;;
61617;SDS011;47518;51.776;9.370;2023-06-22T05:55:44;15.00;;;13.40;;
61617;SDS011;47518;51.776;9.370;2023-06-22T05:58:09;18.60;;;14.35;;
61617;SDS011;47518;51.776;9.370;2023-06-22T06:00:35;17.13;;;14.32;;
61617;SDS011;47518;51.776;9.370;2023-06-22T06:03:00;16.77;;;13.30;;
61617;SDS011;47518;51.776;9.370;2023-06-22T06:05:29;18.70;;;13.52;;
61617;SDS011;47518;51.776;9.370;2023-06-22T06:07:55;14.45;;;13.07;;
61617;SDS011;47518;51.776;9.370;2023-06-22T06:25:09;17.73;;;15.80;;
61617;SDS011;47518;51.776;9.370;2023-06-22T06:27:35;18.10;;;15.60;;
61617;SDS011;47518;51.776;9.370;2023-06-22T06:30:00;21.10;;;15.82;;
61617;SDS011;47518;51.776;9.370;2023-06-22T06:32:25;18.77;;;16.05;;
61617;SDS011;47518;51.776;9.370;2023-06-22T06:34:51;19.17;;;14.57;;
61617;SDS011;47518;51.776;9.370;2023-06-22T06:37:16;19.17;;;15.32;;
61617;SDS011;47518;51.776;9.370;2023-06-22T06:39:42;15.23;;;13.57;;
61617;SDS011;47518;51.776;9.370;2023-06-22T06:42:16;18.35;;;14.18;;
61617;SDS011;47518;51.776;9.370;2023-06-22T06:44:53;17.48;;;12.77;;
61617;SDS011;47518;51.776;9.370;2023-06-22T06:47:20;15.68;;;13.20;;
61617;SDS011;47518;51.776;9.370;2023-06-22T06:49:45;18.50;;;13.40;;
61617;SDS011;47518;51.776;9.370;2023-06-22T06:52:11;15.77;;;13.98;;
61617;SDS011;47518;51.776;9.370;2023-06-22T06:54:36;15.13;;;13.60;;
61617;SDS011;47518;51.776;9.370;2023-06-22T06:57:02;15.07;;;12.75;;
61617;SDS011;47518;51.776;9.370;2023-06-22T06:59:28;15.30;;;12.65;;
61617;SDS011;47518;51.776;9.370;2023-06-22T07:01:55;14.40;;;13.00;;
61617;SDS011;47518;51.776;9.370;2023-06-22T07:04:21;14.93;;;12.88;;
61617;SDS011;47518;51.776;9.370;2023-06-22T07:06:46;30.17;;;21.25;;
61617;SDS011;47518;51.776;9.370;2023-06-22T07:09:11;18.83;;;15.80;;
61617;SDS011;47518;51.776;9.370;2023-06-22T07:11:36;16.45;;;14.63;;
61617;SDS011;47518;51.776;9.370;2023-06-22T07:14:02;18.00;;;14.05;;
61617;SDS011;47518;51.776;9.370;2023-06-22T07:16:27;16.15;;;14.52;;
61617;SDS011;47518;51.776;9.370;2023-06-22T07:18:54;15.63;;;14.02;;
61617;SDS011;47518;51.776;9.370;2023-06-22T07:21:20;15.77;;;14.18;;
61617;SDS011;47518;51.776;9.370;2023-06-22T07:23:45;15.45;;;14.00;;
61617;SDS011;47518;51.776;9.370;2023-06-22T07:26:11;15.95;;;14.13;;
61617;SDS011;47518;51.776;9.370;2023-06-22T07:28:37;17.30;;;14.63;;
61617;SDS011;47518;51.776;9.370;2023-06-22T07:31:05;15.57;;;14.05;;
61617;SDS011;47518;51.776;9.370;2023-06-22T07:33:31;17.35;;;15.30;;
61617;SDS011;47518;51.776;9.370;2023-06-22T07:35:56;18.35;;;16.55;;
61617;SDS011;47518;51.776;9.370;2023-06-22T07:38:22;17.13;;;15.45;;
61617;SDS011;47518;51.776;9.370;2023-06-22T07:40:50;17.95;;;15.98;;
61617;SDS011;47518;51.776;9.370;2023-06-22T07:43:15;18.83;;;16.23;;
61617;SDS011;47518;51.776;9.370;2023-06-22T07:45:43;17.67;;;15.70;;
61617;SDS011;47518;51.776;9.370;2023-06-22T07:48:16;18.25;;;16.30;;
61617;SDS011;47518;51.776;9.370;2023-06-22T07:50:42;18.42;;;16.17;;
61617;SDS011;47518;51.776;9.370;2023-06-22T07:53:07;15.80;;;14.40;;
61617;SDS011;47518;51.776;9.370;2023-06-22T07:55:32;19.05;;;15.25;;
61617;SDS011;47518;51.776;9.370;2023-06-22T07:57:58;17.35;;;15.65;;
61617;SDS011;47518;51.776;9.370;2023-06-22T08:00:23;16.75;;;15.07;;
61617;SDS011;47518;51.776;9.370;2023-06-22T08:02:48;19.00;;;15.38;;
61617;SDS011;47518;51.776;9.370;2023-06-22T08:05:14;17.52;;;15.82;;
61617;SDS011;47518;51.776;9.370;2023-06-22T08:07:40;16.92;;;15.13;;
61617;SDS011;47518;51.776;9.370;2023-06-22T08:10:06;18.38;;;16.38;;
61617;SDS011;47518;51.776;9.370;2023-06-22T08:12:35;16.55;;;14.90;;
61617;SDS011;47518;51.776;9.370;2023-06-22T08:15:00;16.70;;;15.13;;
61617;SDS011;47518;51.776;9.370;2023-06-22T08:17:28;20.27;;;16.60;;
61617;SDS011;47518;51.776;9.370;2023-06-22T08:19:53;16.67;;;15.07;;
61617;SDS011;47518;51.776;9.370;2023-06-22T08:22:19;17.17;;;14.90;;
61617;SDS011;47518;51.776;9.370;2023-06-22T08:24:44;18.77;;;16.85;;
61617;SDS011;47518;51.776;9.370;2023-06-22T08:27:10;17.30;;;15.63;;
61617;SDS011;47518;51.776;9.370;2023-06-22T08:29:38;17.00;;;15.27;;
61617;SDS011;47518;51.776;9.370;2023-06-22T08:32:04;16.40;;;14.82;;
61617;SDS011;47518;51.776;9.370;2023-06-22T08:34:30;18.88;;;17.05;;
61617;SDS011;47518;51.776;9.370;2023-06-22T08:36:55;19.38;;;17.30;;
61617;SDS011;47518;51.776;9.370;2023-06-22T08:39:21;19.10;;;17.17;;
61617;SDS011;47518;51.776;9.370;2023-06-22T08:41:47;16.88;;;15.15;;
61617;SDS011;47518;51.776;9.370;2023-06-22T08:44:17;18.52;;;15.52;;
61617;SDS011;47518;51.776;9.370;2023-06-22T08:46:49;18.83;;;16.90;;
61617;SDS011;47518;51.776;9.370;2023-06-22T08:49:14;17.70;;;15.57;;
61617;SDS011;47518;51.776;9.370;2023-06-22T08:51:40;16.90;;;15.10;;
61617;SDS011;47518;51.776;9.370;2023-06-22T08:54:05;16.30;;;14.80;;
61617;SDS011;47518;51.776;9.370;2023-06-22T08:56:30;18.35;;;15.02;;
61617;SDS011;47518;51.776;9.370;2023-06-22T08:58:56;18.52;;;15.18;;
61617;SDS011;47518;51.776;9.370;2023-06-22T09:01:21;18.67;;;16.15;;
61617;SDS011;47518;51.776;9.370;2023-06-22T09:03:47;16.20;;;14.30;;
61617;SDS011;47518;51.776;9.370;2023-06-22T09:06:20;16.42;;;14.77;;
61617;SDS011;47518;51.776;9.370;2023-06-22T09:08:46;15.88;;;14.27;;
61617;SDS011;47518;51.776;9.370;2023-06-22T09:11:12;14.48;;;13.05;;
61617;SDS011;47518;51.776;9.370;2023-06-22T09:13:37;16.17;;;14.57;;
61617;SDS011;47518;51.776;9.370;2023-06-22T09:16:03;14.80;;;13.30;;
61617;SDS011;47518;51.776;9.370;2023-06-22T09:18:28;15.07;;;13.68;;
61617;SDS011;47518;51.776;9.370;2023-06-22T09:20:54;14.27;;;12.88;;
61617;SDS011;47518;51.776;9.370;2023-06-22T09:23:20;13.40;;;12.10;;
61617;SDS011;47518;51.776;9.370;2023-06-22T09:25:45;13.15;;;11.73;;
61617;SDS011;47518;51.776;9.370;2023-06-22T09:28:12;10.90;;;9.95;;
61617;SDS011;47518;51.776;9.370;2023-06-22T09:30:38;13.23;;;12.02;;
61617;SDS011;47518;51.776;9.370;2023-06-22T09:33:03;13.20;;;11.07;;
61617;SDS011;47518;51.776;9.370;2023-06-22T09:35:28;12.30;;;11.20;;
61617;SDS011;47518;51.776;9.370;2023-06-22T09:37:54;12.00;;;10.60;;
61617;SDS011;47518;51.776;9.370;2023-06-22T09:40:19;11.40;;;10.27;;
61617;SDS011;47518;51.776;9.370;2023-06-22T09:42:45;11.05;;;10.05;;
61617;SDS011;47518;51.776;9.370;2023-06-22T09:45:10;11.85;;;10.75;;
61617;SDS011;47518;51.776;9.370;2023-06-22T09:47:36;11.63;;;10.43;;
61617;SDS011;47518;51.776;9.370;2023-06-22T09:50:01;10.43;;;9.52;;
61617;SDS011;47518;51.776;9.370;2023-06-22T09:52:26;11.05;;;10.07;;
61617;SDS011;47518;51.776;9.370;2023-06-22T09:54:52;10.52;;;9.63;;
61617;SDS011;47518;51.776;9.370;2023-06-22T09:57:17;10.85;;;9.73;;
61617;SDS011;47518;51.776;9.370;2023-06-22T09:59:42;10.35;;;9.45;;
61617;SDS011;47518;51.776;9.370;2023-06-22T10:02:08;11.85;;;9.60;;
61617;SDS011;47518;51.776;9.370;2023-06-22T10:04:34;10.77;;;9.70;;
61617;SDS011;47518;51.776;9.370;2023-06-22T10:06:59;10.43;;;9.38;;
61617;SDS011;47518;51.776;9.370;2023-06-22T10:09:25;9.98;;;9.07;;
61617;SDS011;47518;51.776;9.370;2023-06-22T10:11:50;10.50;;;9.40;;
61617;SDS011;47518;51.776;9.370;2023-06-22T10:14:15;10.85;;;9.77;;
61617;SDS011;47518;51.776;9.370;2023-06-22T10:16:41;10.70;;;9.55;;
61617;SDS011;47518;51.776;9.370;2023-06-22T10:19:07;10.10;;;9.30;;
61617;SDS011;47518;51.776;9.370;2023-06-22T10:21:32;10.88;;;9.98;;
61617;SDS011;47518;51.776;9.370;2023-06-22T10:23:58;10.02;;;9.13;;
61617;SDS011;47518;51.776;9.370;2023-06-22T10:26:26;10.30;;;9.40;;
61617;SDS011;47518;51.776;9.370;2023-06-22T10:28:54;10.40;;;9.50;;
61617;SDS011;47518;51.776;9.370;2023-06-22T10:31:19;11.20;;;9.75;;
61617;SDS011;47518;51.776;9.370;2023-06-22T10:33:44;10.43;;;9.52;;
61617;SDS011;47518;51.776;9.370;2023-06-22T10:36:10;10.27;;;9.25;;
61617;SDS011;47518;51.776;9.370;2023-06-22T10:38:36;10.05;;;9.15;;
61617;SDS011;47518;51.776;9.370;2023-06-22T10:41:01;10.70;;;9.70;;
61617;SDS011;47518;51.776;9.370;2023-06-22T10:43:27;9.40;;;8.70;;
61617;SDS011;47518;51.776;9.370;2023-06-22T10:45:52;10.15;;;9.25;;
61617;SDS011;47518;51.776;9.370;2023-06-22T10:48:18;10.05;;;9.05;;
61617;SDS011;47518;51.776;9.370;2023-06-22T10:50:43;10.38;;;9.48;;
61617;SDS011;47518;51.776;9.370;2023-06-22T10:53:08;10.50;;;9.60;;
61617;SDS011;47518;51.776;9.370;2023-06-22T10:55:33;10.10;;;9.20;;
61617;SDS011;47518;51.776;9.370;2023-06-22T10:57:59;9.73;;;8.82;;
61617;SDS011;47518;51.776;9.370;2023-06-22T11:00:24;10.27;;;9.20;;
61617;SDS011;47518;51.776;9.370;2023-06-22T11:02:49;10.10;;;9.20;;
61617;SDS011;47518;51.776;9.370;2023-06-22T11:05:16;9.93;;;9.10;;
61617;SDS011;47518;51.776;9.370;2023-06-22T11:07:41;11.48;;;8.70;;
61617;SDS011;47518;51.776;9.370;2023-06-22T11:10:08;9.40;;;8.38;;
61617;SDS011;47518;51.776;9.370;2023-06-22T11:12:34;9.38;;;8.57;;
61617;SDS011;47518;51.776;9.370;2023-06-22T11:14:59;9.10;;;8.30;;
61617;SDS011;47518;51.776;9.370;2023-06-22T11:17:24;9.15;;;8.35;;
61617;SDS011;47518;51.776;9.370;2023-06-22T11:19:50;9.13;;;8.20;;
61617;SDS011;47518;51.776;9.370;2023-06-22T11:22:15;9.80;;;8.90;;
61617;SDS011;47518;51.776;9.370;2023-06-22T11:24:41;9.57;;;8.65;;
61617;SDS011;47518;51.776;9.370;2023-06-22T11:27:06;9.95;;;9.10;;
61617;SDS011;47518;51.776;9.370;2023-06-22T11:29:32;9.80;;;8.90;;
61617;SDS011;47518;51.776;9.370;2023-06-22T11:31:57;9.77;;;8.88;;
61617;SDS011;47518;51.776;9.370;2023-06-22T11:34:22;9.70;;;8.93;;
61617;SDS011;47518;51.776;9.370;2023-06-22T11:36:47;9.63;;;8.55;;
61617;SDS011;47518;51.776;9.370;2023-06-22T11:39:13;10.98;;;8.88;;
61617;SDS011;47518;51.776;9.370;2023-06-22T11:41:39;9.68;;;8.68;;
61617;SDS011;47518;51.776;9.370;2023-06-22T11:44:05;9.90;;;8.98;;
61617;SDS011;47518;51.776;9.370;2023-06-22T11:46:30;9.52;;;8.73;;
61617;SDS011;47518;51.776;9.370;2023-06-22T11:48:57;9.48;;;8.48;;
61617;SDS011;47518;51.776;9.370;2023-06-22T11:51:23;9.55;;;8.75;;
61617;SDS011;47518;51.776;9.370;2023-06-22T11:53:48;10.60;;;9.38;;
61617;SDS011;47518;51.776;9.370;2023-06-22T11:56:13;10.77;;;9.68;;
61617;SDS011;47518;51.776;9.370;2023-06-22T11:58:39;10.30;;;9.45;;
61617;SDS011;47518;51.776;9.370;2023-06-22T12:01:04;9.27;;;8.45;;
61617;SDS011;47518;51.776;9.370;2023-06-22T12:03:30;10.07;;;9.18;;
61617;SDS011;47518;51.776;9.370;2023-06-22T12:05:55;9.90;;;9.10;;
61617;SDS011;47518;51.776;9.370;2023-06-22T12:08:21;10.10;;;9.20;;
61617;SDS011;47518;51.776;9.370;2023-06-22T12:10:46;9.60;;;8.70;;
61617;SDS011;47518;51.776;9.370;2023-06-22T12:13:11;9.95;;;9.05;;
61617;SDS011;47518;51.776;9.370;2023-06-22T12:15:37;9.48;;;8.65;;
61617;SDS011;47518;51.776;9.370;2023-06-22T12:18:03;10.07;;;9.18;;
61617;SDS011;47518;51.776;9.370;2023-06-22T12:20:28;10.38;;;9.40;;
61617;SDS011;47518;51.776;9.370;2023-06-22T12:22:53;9.90;;;9.00;;
61617;SDS011;47518;51.776;9.370;2023-06-22T12:25:21;9.63;;;8.85;;
61617;SDS011;47518;51.776;9.370;2023-06-22T12:27:47;10.02;;;9.13;;
61617;SDS011;47518;51.776;9.370;2023-06-22T12:30:12;10.05;;;9.20;;
61617;SDS011;47518;51.776;9.370;2023-06-22T12:32:37;9.68;;;8.77;;
61617;SDS011;47518;51.776;9.370;2023-06-22T12:35:03;9.75;;;8.85;;
61617;SDS011;47518;51.776;9.370;2023-06-22T12:37:29;9.65;;;8.75;;
61617;SDS011;47518;51.776;9.370;2023-06-22T12:39:56;10.30;;;9.30;;
61617;SDS011;47518;51.776;9.370;2023-06-22T12:42:22;11.20;;;9.52;;
61617;SDS011;47518;51.776;9.370;2023-06-22T12:44:47;10.00;;;9.10;;
61617;SDS011;47518;51.776;9.370;2023-06-22T12:47:12;10.48;;;9.57;;
61617;SDS011;47518;51.776;9.370;2023-06-22T12:49:39;10.10;;;9.10;;
61617;SDS011;47518;51.776;9.370;2023-06-22T12:52:11;9.60;;;8.70;;
61617;SDS011;47518;51.776;9.370;2023-06-22T12:54:37;10.30;;;9.40;;
61617;SDS011;47518;51.776;9.370;2023-06-22T12:57:02;10.57;;;9.57;;
61617;SDS011;47518;51.776;9.370;2023-06-22T12:59:28;9.35;;;8.65;;
61617;SDS011;47518;51.776;9.370;2023-06-22T13:01:53;9.52;;;8.63;;
61617;SDS011;47518;51.776;9.370;2023-06-22T13:04:18;10.23;;;9.20;;
61617;SDS011;47518;51.776;9.370;2023-06-22T13:06:44;9.52;;;8.73;;
61617;SDS011;47518;51.776;9.370;2023-06-22T13:09:13;10.60;;;8.90;;
61617;SDS011;47518;51.776;9.370;2023-06-22T13:11:39;9.45;;;8.55;;
61617;SDS011;47518;51.776;9.370;2023-06-22T13:14:04;10.23;;;9.20;;
61617;SDS011;47518;51.776;9.370;2023-06-22T13:16:30;10.55;;;9.57;;
61617;SDS011;47518;51.776;9.370;2023-06-22T13:18:58;11.55;;;9.70;;
61617;SDS011;47518;51.776;9.370;2023-06-22T13:21:23;10.88;;;9.77;;
61617;SDS011;47518;51.776;9.370;2023-06-22T13:23:49;10.75;;;9.65;;
61617;SDS011;47518;51.776;9.370;2023-06-22T13:26:14;10.07;;;9.27;;
61617;SDS011;47518;51.776;9.370;2023-06-22T13:28:39;10.48;;;9.48;;
61617;SDS011;47518;51.776;9.370;2023-06-22T13:31:04;10.13;;;9.02;;
61617;SDS011;47518;51.776;9.370;2023-06-22T13:33:30;12.32;;;9.45;;
61617;SDS011;47518;51.776;9.370;2023-06-22T13:35:56;10.88;;;9.77;;
61617;SDS011;47518;51.776;9.370;2023-06-22T13:38:21;10.73;;;9.70;;
61617;SDS011;47518;51.776;9.370;2023-06-22T13:40:47;10.38;;;9.38;;
61617;SDS011;47518;51.776;9.370;2023-06-22T13:43:13;12.00;;;9.95;;
61617;SDS011;47518;51.776;9.370;2023-06-22T13:45:38;10.45;;;9.43;;
61617;SDS011;47518;51.776;9.370;2023-06-22T13:48:04;11.63;;;10.63;;
61617;SDS011;47518;51.776;9.370;2023-06-22T13:50:29;11.32;;;10.25;;
61617;SDS011;47518;51.776;9.370;2023-06-22T13:52:55;11.43;;;10.43;;
61617;SDS011;47518;51.776;9.370;2023-06-22T13:55:20;11.48;;;10.38;;
61617;SDS011;47518;51.776;9.370;2023-06-22T13:57:46;11.23;;;10.23;;
61617;SDS011;47518;51.776;9.370;2023-06-22T14:00:11;11.95;;;10.93;;
61617;SDS011;47518;51.776;9.370;2023-06-22T14:02:37;12.60;;;11.50;;
61617;SDS011;47518;51.776;9.370;2023-06-22T14:05:04;12.57;;;11.40;;
61617;SDS011;47518;51.776;9.370;2023-06-22T14:07:30;12.18;;;11.00;;
61617;SDS011;47518;51.776;9.370;2023-06-22T14:09:56;12.57;;;11.48;;
61617;SDS011;47518;51.776;9.370;2023-06-22T14:12:22;11.48;;;10.45;;
61617;SDS011;47518;51.776;9.370;2023-06-22T14:14:48;12.68;;;11.50;;
61617;SDS011;47518;51.776;9.370;2023-06-22T14:17:13;12.35;;;11.25;;
61617;SDS011;47518;51.776;9.370;2023-06-22T14:19:38;12.77;;;11.30;;
61617;SDS011;47518;51.776;9.370;2023-06-22T14:22:04;12.52;;;11.27;;
61617;SDS011;47518;51.776;9.370;2023-06-22T14:24:29;12.45;;;11.25;;
61617;SDS011;47518;51.776;9.370;2023-06-22T14:26:55;12.45;;;11.20;;
61617;SDS011;47518;51.776;9.370;2023-06-22T14:29:21;12.32;;;11.23;;
61617;SDS011;47518;51.776;9.370;2023-06-22T14:31:47;13.60;;;11.95;;
61617;SDS011;47518;51.776;9.370;2023-06-22T14:34:13;14.68;;;13.27;;
61617;SDS011;47518;51.776;9.370;2023-06-22T14:36:38;13.40;;;12.30;;